地図

経路データ

SID SEASON NUMBER BASIN SUBBASIN NAME ISO_TIME NATURE LAT LON WMO_WIND WMO_PRES WMO_AGENCY TRACK_TYPE DIST2LAND LANDFALL IFLAG USA_AGENCY USA_ATCF_ID USA_LAT USA_LON USA_RECORD USA_STATUS USA_WIND USA_PRES USA_SSHS USA_R34_NE USA_R34_SE USA_R34_SW USA_R34_NW USA_R50_NE USA_R50_SE USA_R50_SW USA_R50_NW USA_R64_NE USA_R64_SE USA_R64_SW USA_R64_NW USA_POCI USA_ROCI USA_RMW USA_EYE TOKYO_LAT TOKYO_LON TOKYO_GRADE TOKYO_WIND TOKYO_PRES TOKYO_R50_DIR TOKYO_R50_LONG TOKYO_R50_SHORT TOKYO_R30_DIR TOKYO_R30_LONG TOKYO_R30_SHORT TOKYO_LAND CMA_LAT CMA_LON CMA_CAT CMA_WIND CMA_PRES HKO_LAT HKO_LON HKO_CAT HKO_WIND HKO_PRES NEWDELHI_LAT NEWDELHI_LON NEWDELHI_GRADE NEWDELHI_WIND NEWDELHI_PRES NEWDELHI_CI NEWDELHI_DP NEWDELHI_POCI REUNION_LAT REUNION_LON REUNION_TYPE REUNION_WIND REUNION_PRES REUNION_TNUM REUNION_CI REUNION_RMW REUNION_R34_NE REUNION_R34_SE REUNION_R34_SW REUNION_R34_NW REUNION_R50_NE REUNION_R50_SE REUNION_R50_SW REUNION_R50_NW REUNION_R64_NE REUNION_R64_SE REUNION_R64_SW REUNION_R64_NW BOM_LAT BOM_LON BOM_TYPE BOM_WIND BOM_PRES BOM_TNUM BOM_CI BOM_RMW BOM_R34_NE BOM_R34_SE BOM_R34_SW BOM_R34_NW BOM_R50_NE BOM_R50_SE BOM_R50_SW BOM_R50_NW BOM_R64_NE BOM_R64_SE BOM_R64_SW BOM_R64_NW BOM_ROCI BOM_POCI BOM_EYE BOM_POS_METHOD BOM_PRES_METHOD NADI_LAT NADI_LON NADI_CAT NADI_WIND NADI_PRES WELLINGTON_LAT WELLINGTON_LON WELLINGTON_WIND WELLINGTON_PRES DS824_LAT DS824_LON DS824_STAGE DS824_WIND DS824_PRES TD9636_LAT TD9636_LON TD9636_STAGE TD9636_WIND TD9636_PRES TD9635_LAT TD9635_LON TD9635_WIND TD9635_PRES TD9635_ROCI NEUMANN_LAT NEUMANN_LON NEUMANN_CLASS NEUMANN_WIND NEUMANN_PRES MLC_LAT MLC_LON MLC_CLASS MLC_WIND MLC_PRES USA_GUST BOM_GUST BOM_GUST_PER REUNION_GUST REUNION_GUST_PER USA_SEAHGT USA_SEARAD_NE USA_SEARAD_SE USA_SEARAD_SW USA_SEARAD_NW STORM_SPEED STORM_DIR
1969248N15343 1969 70 NA NA NOT_NAMED 1969-09-05 06:00:00 TS 14.9000 -17.0000 25 atcf main 0 0 O_____________ atcf AL151969 14.9000 -17.0000 TD 25 -1 9 269
1969248N15343 1969 70 NA NA NOT_NAMED 1969-09-05 09:00:00 TS 14.8926 -17.4400 main 15 15 P_____________ AL151969 14.8926 -17.4400 TD 25 -1 9 270
1969248N15343 1969 70 NA NA NOT_NAMED 1969-09-05 12:00:00 TS 14.9000 -17.9000 25 atcf main 48 48 O_____________ atcf AL151969 14.9000 -17.9000 TD 25 -1 9 273
1969248N15343 1969 70 NA NA NOT_NAMED 1969-09-05 15:00:00 TS 14.9349 -18.3925 main 99 99 P_____________ AL151969 14.9349 -18.3925 TD 25 -1 10 276
1969248N15343 1969 70 NA NA NOT_NAMED 1969-09-05 18:00:00 TS 15.0000 -18.9000 25 atcf main 154 154 O_____________ atcf AL151969 15.0000 -18.9000 TD 25 -1 10 277
1969248N15343 1969 70 NA NA NOT_NAMED 1969-09-05 21:00:00 TS 15.0548 -19.3928 main 209 209 P_____________ AL151969 15.0548 -19.3928 TD 25 -1 10 282
1969248N15343 1969 70 NA NA NOT_NAMED 1969-09-06 00:00:00 TS 15.2000 -19.9000 25 atcf main 263 263 O_____________ atcf AL151969 15.2000 -19.9000 TD 25 -1 11 296
1969248N15343 1969 70 NA NA NOT_NAMED 1969-09-06 03:00:00 TS 15.5650 -20.4569 main 337 337 P_____________ AL151969 15.5650 -20.4569 TD 25 -1 13 303
1969248N15343 1969 70 NA NA NOT_NAMED 1969-09-06 06:00:00 TS 15.9000 -21.0000 25 atcf main 398 398 O_____________ atcf AL151969 15.9000 -21.0000 TD 25 -1 10 293
1969248N15343 1969 70 NA NA NOT_NAMED 1969-09-06 09:00:00 TS 15.9441 -21.3830 main 439 439 P_____________ AL151969 15.9441 -21.3830 TD 25 -1 9 270
1969248N15343 1969 70 NA NA NOT_NAMED 1969-09-06 12:00:00 TS 15.9000 -21.9000 25 atcf main 490 490 O_____________ atcf AL151969 15.9000 -21.9000 TD 25 -1 14 269
1969248N15343 1969 70 NA NA NOT_NAMED 1969-09-06 15:00:00 TS 15.9135 -22.8628 main 594 594 P_____________ AL151969 15.9135 -22.8628 TD 27 -1 19 273
1969248N15343 1969 70 NA NA NOT_NAMED 1969-09-06 18:00:00 TS 16.0000 -23.9000 30 atcf main 701 701 O_____________ atcf AL151969 16.0000 -23.9000 TD 30 -1 18 281
1969248N15343 1969 70 NA NA NOT_NAMED 1969-09-06 21:00:00 TS 16.2569 -24.6595 main 792 792 P_____________ AL151969 16.2569 -24.6595 TD 30 -1 14 290
1969248N15343 1969 70 NA NA NOT_NAMED 1969-09-07 00:00:00 TS 16.5000 -25.3000 30 atcf main 859 859 O_____________ atcf AL151969 16.5000 -25.3000 TD 30 -1 13 282
1969248N15343 1969 70 NA NA NOT_NAMED 1969-09-07 03:00:00 TS 16.5300 -25.9604 main 932 932 P_____________ AL151969 16.4248 -25.9313 TD 30 -1 12 270
1969248N15343 1969 70 NA NA NOT_NAMED 1969-09-07 06:00:00 TS 16.5000 -26.5000 30 atcf main 984 984 O_____________ atcf AL151969 16.5000 -26.5000 TD 30 -1 8 271
1969248N15343 1969 70 NA NA NOT_NAMED 1969-09-07 09:00:00 TS 16.5494 -26.8000 main 1016 1016 P_____________ AL151969 17.2722 -27.0060 TD 30 -1 8 300
1969248N15343 1969 70 NA NA NOT_NAMED 1969-09-07 12:00:00 TS 16.8800 -27.1800 30 hurdat_atl main 1066 1066 O_____________ hurdat_atl AL151969 18.0000 -27.5000 TD 30 -1 10 297
1969248N15343 1969 70 NA NA NOT_NAMED 1969-09-07 15:00:00 TS 17.0226 -27.7718 main 1131 1131 P_____________ AL151969 17.9849 -28.0436 TD 30 -1 12 279
1969248N15343 1969 70 NA NA NOT_NAMED 1969-09-07 18:00:00 TS 17.0714 -28.4286 30 hurdat_atl main 1196 1196 O_____________ hurdat_atl AL151969 17.7000 -28.6000 TD 30 -1 13 272
1969248N15343 1969 70 NA NA NOT_NAMED 1969-09-07 21:00:00 TS 17.0713 -29.1037 main 1269 1269 P_____________ AL151969 17.5423 -29.1500 TD 30 -1 13 267
1969248N15343 1969 70 NA NA NOT_NAMED 1969-09-08 00:00:00 TS 17.0000 -29.7500 30 hurdat_atl main 1330 1330 O_____________ hurdat_atl AL151969 17.4000 -29.7000 TD 30 -1 12 263
1969248N15343 1969 70 NA NA NOT_NAMED 1969-09-08 03:00:00 TS 16.9347 -30.3075 main 1391 1391 P_____________ AL151969 17.2923 -30.2424 TD 30 -1 11 265
1969248N15343 1969 70 NA NA NOT_NAMED 1969-09-08 06:00:00 TS 16.9000 -30.8500 30 hurdat_atl main 1444 1444 O_____________ hurdat_atl AL151969 17.2000 -30.8000 TD 30 -1 10 269
1969248N15343 1969 70 NA NA NOT_NAMED 1969-09-08 09:00:00 TS 16.9243 -31.3936 main 1507 1507 P_____________ AL151969 17.0998 -31.3849 TD 30 -1 12 272
1969248N15343 1969 70 NA NA NOT_NAMED 1969-09-08 12:00:00 TS 16.9500 -32.0500 30 hurdat_atl main 1572 1572 O_____________ hurdat_atl AL151969 17.0000 -32.0000 TD 30 -1 15 269
1969248N15343 1969 70 NA NA NOT_NAMED 1969-09-08 15:00:00 TS 16.9079 -32.9340 main 1666 1666 P_____________ AL151969 16.8997 -32.6274 TD 30 -1 18 267
1969248N15343 1969 70 NA NA NOT_NAMED 1969-09-08 18:00:00 TS 16.8500 -33.9000 30 hurdat_atl main 1771 1770 O_____________ hurdat_atl AL151969 16.8000 -33.3000 TD 30 -1 18 267
1969248N15343 1969 70 NA NA NOT_NAMED 1969-09-08 21:00:00 TS 16.8212 -34.8311 main 1866 1866 P_____________ AL151969 16.6923 -34.0275 TD 27 -1 17 268
1969248N15343 1969 70 NA NA NOT_NAMED 1969-09-09 00:00:00 TS 16.8000 -35.6500 25 hurdat_atl main 1951 1961 O_____________ hurdat_atl AL151969 16.6000 -34.8000 TD 25 -1 13 268
1969248N15343 1969 70 NA NA NOT_NAMED 1969-09-09 03:00:00 TS 16.7740 -36.1887 main 2014 2014 P_____________ AL151969 16.5348 -35.5925 TD 25 -1 11 267
1969248N15343 1969 70 NA NA NOT_NAMED 1969-09-09 06:00:00 TS 16.7500 -36.7500 25 hurdat_atl main 2068 2040 O_____________ hurdat_atl AL151969 16.5000 -36.4000 TD 25 -1 14 268
1969248N15343 1969 70 NA NA NOT_NAMED 1969-09-09 09:00:00 TS 16.7218 -37.6551 main 2032 1962 P_____________ AL151969 16.4921 -37.1924 TD 25 -1 18 268
1969248N15343 1969 70 NA NA NOT_NAMED 1969-09-09 12:00:00 TS 16.7000 -38.6500 25 hurdat_atl main 1962 1901 O_____________ hurdat_atl AL151969 16.5000 -38.0000 TD 25 -1 18 269
1969248N15343 1969 70 NA NA NOT_NAMED 1969-09-09 15:00:00 TS 16.6952 -39.4812 main 1894 1828 P_____________ AL151969 16.4997 -38.8350 TD 25 -1 17 271
1969248N15343 1969 70 NA NA NOT_NAMED 1969-09-09 18:00:00 TS 16.7286 -40.4429 25 hurdat_atl main 1828 1755 O_____________ hurdat_atl AL151969 16.5000 -39.7000 TD 25 -1 21 272
1969248N15343 1969 70 NA NA NOT_NAMED 1969-09-09 21:00:00 TS 16.7679 -41.7075 main 1748 1673 P_____________ AL151969 16.4675 -40.4660 TD 25 -1 25 272
1969248N15343 1969 70 NA NA NOT_NAMED 1969-09-10 00:00:00 TS 16.8000 -43.0000 25 hurdat_atl main 1667 1592 O_____________ hurdat_atl AL151969 16.5000 -41.5000 TD 25 -1 26 273
1969248N15343 1969 70 NA NA NOT_NAMED 1969-09-10 03:00:00 TS 16.8991 -44.3699 main 1586 1550 P_____________ AL151969 16.6653 -43.0808 TD 25 -1 19 273
1969248N15343 1969 70 NA NA NOT_NAMED 1969-09-10 06:00:00 TS 16.9000 -45.0000 25 atcf main 1550 O_____________ atcf AL151969 16.9000 -45.0000 TD 25 -1 12 270

IBTrACS Databaseについて

本データベースは、米国NOAAが公開する1842年以降の世界の熱帯低気圧のベストトラックデータアーカイブInternational Best Track Archive for Climate Stewardship (IBTrACS)を、ウェブで閲覧しやすい形式に変換したものです。

最終更新日:2022-05-13